Terminal Aerodrome Forecast
Issued by NWS

Home | Current Version | Previous Version | Text Only | Print | Product List | Glossary On
Versions: 1 2 3 4 5 6 7 8 9 10 11 12 13 14 15 16 17 18 19 20 21 22 23
000
FTUS44 KCRP 010500
TAFALI
TAF
KALI 010530Z 0106/0206 18008KT 6SM BR FEW007 SCT024 BKN040
      WS020/18035KT
      TEMPO 0111/0114 3SM BR SCT004
     FM011500 20006KT P6SM SCT015 BKN050
     FM011700 24007KT P6SM BKN100
     FM012200 34006KT P6SM BKN100
     FM020300 36022KT P6SM SCT022=

USA.gov is the U.S. government's official web portal to all federal, state and local government web resources and services.